Terminal Aerodrome Forecast
Issued by NWS

Home | Current Version | Previous Version | Text Only | Print | Product List | Glossary On
Versions: 1 2 3 4 5 6 7 8 9 10 11 12 13 14 15
739
FTUS45 KRIW 181720
TAFBPI
TAF
KBPI 181720Z 1818/1918 VRB06KT P6SM SCT090
     FM190500 VRB06KT P6SM SCT070 WS015/24035KT=

USA.gov is the U.S. government's official web portal to all federal, state and local government web resources and services.